Search for airport 
image banner adimage banner adimage banner ad
image banner ad

KOQN - Brandywine

Located in West Chester, United States

ICAO - OQN, IATA -

Data provided by Airmate  

General information

Coordinates: N39°59'24" W75°34'55"
Elevation is 465 feet MSL.
Magnetic variation is -12° East
View others Airports in Pennsylvania

Operational data

Special qualification required
Current time UTC:
Current local time:
Weather
METAR: KOQN 132135Z AUTO 16003KT 10SM OVC033 23/17 A2988 RMK AO2
View NOTAMs / SUP AIP / TFR affecting this airport [VIEW]
Communications frequencies: [VIEW]

Runways:

RWY identifierQFULength (ft)Width (ft)SurfaceLDA (ft)
0977°334750ASPH
27257°334750ASPH

Airport contact information

Address: West Chester United States

Other aviation service providers

Flight schools

Brandywine Flight School

Brandywine Flight School

Liberty Flight School

Liberty Flight School

Satellite view of KOQN